Time;durP1;ratioP1;P1;durP2;ratioP2;P2;SDS_P1;SDS_P2;PMS_P1;PMS_P2;Temp;Humidity;BMP_temperature;BMP_pressure;BME280_temperature;BME280_humidity;BME280_pressure;Samples;Min_cycle;Max_cycle;Signal;HPM_P1;HPM_P2
2023/03/22 00:00:53;;;;;;;0.60;0.60;;;10.40;99.90;;;;;;5050271;28;20060;-77
2023/03/22 00:03:19;;;;;;;0.60;0.60;;;10.50;99.90;;;;;;5059839;28;20051;-77
2023/03/22 00:05:45;;;;;;;0.60;0.60;;;10.50;99.90;;;;;;5054042;28;20043;-77
2023/03/22 00:08:12;;;;;;;0.60;0.60;;;10.50;99.90;;;;;;5073319;28;20501;-77
2023/03/22 00:10:39;;;;;;;0.60;0.60;;;10.50;99.90;;;;;;5048277;28;20075;-76
2023/03/22 00:13:06;;;;;;;0.60;0.60;;;10.40;99.90;;;;;;5071987;28;20114;-77
2023/03/22 00:15:33;;;;;;;0.60;0.60;;;10.50;99.90;;;;;;5071248;28;20051;-77
2023/03/22 00:18:00;;;;;;;0.60;0.60;;;10.50;99.90;;;;;;5071673;28;20051;-77
2023/03/22 00:20:30;;;;;;;0.60;0.60;;;10.40;99.90;;;;;;5056258;28;20055;-77
2023/03/22 00:22:56;;;;;;;0.60;0.60;;;10.40;99.90;;;;;;5057788;28;20052;-76
2023/03/22 00:25:22;;;;;;;0.60;0.60;;;10.50;99.90;;;;;;5075793;28;20048;-76
2023/03/22 00:27:48;;;;;;;0.60;0.60;;;10.30;99.90;;;;;;5056154;28;20040;-77
2023/03/22 00:30:14;;;;;;;0.60;0.60;;;10.30;99.90;;;;;;5048180;28;20075;-76
2023/03/22 00:32:43;;;;;;;0.60;0.60;;;10.40;99.90;;;;;;5072869;28;20053;-77
2023/03/22 00:35:10;;;;;;;0.60;0.60;;;10.30;99.90;;;;;;5075723;28;20051;-77
2023/03/22 00:37:37;;;;;;;0.60;0.60;;;10.20;99.90;;;;;;5073815;28;20056;-77
2023/03/22 00:40:13;;;;;;;0.60;0.60;;;10.20;99.90;;;;;;5057666;28;20101;-77
2023/03/22 00:42:40;;;;;;;0.70;0.70;;;10.20;99.90;;;;;;5071915;28;20051;-76
2023/03/22 00:45:09;;;;;;;0.60;0.60;;;10.20;99.90;;;;;;5055648;28;20048;-76
2023/03/22 00:47:34;;;;;;;0.60;0.60;;;10.10;99.90;;;;;;5074375;28;20048;-76
2023/03/22 00:50:01;;;;;;;0.60;0.60;;;10.00;99.90;;;;;;5073328;28;20029;-76
2023/03/22 00:52:30;;;;;;;0.60;0.60;;;9.90;99.90;;;;;;5055802;28;20093;-76
2023/03/22 00:54:56;;;;;;;0.60;0.60;;;9.90;99.90;;;;;;5073320;28;20055;-76
2023/03/22 00:57:22;;;;;;;0.60;0.60;;;9.80;99.90;;;;;;5078273;28;20848;-76
2023/03/22 00:59:48;;;;;;;0.60;0.60;;;9.90;99.90;;;;;;5075916;28;20050;-77
2023/03/22 01:02:14;;;;;;;0.60;0.60;;;9.90;99.90;;;;;;5071606;28;20810;-77
2023/03/22 01:04:45;;;;;;;0.60;0.60;;;10.00;99.90;;;;;;5075661;28;20048;-77
2023/03/22 01:07:20;;;;;;;0.60;0.60;;;10.10;99.90;;;;;;5075783;28;20135;-77
2023/03/22 01:09:49;;;;;;;0.60;0.60;;;10.10;99.90;;;;;;5071834;28;20044;-77
2023/03/22 01:12:15;;;;;;;0.60;0.60;;;10.10;99.90;;;;;;5075974;28;20043;-76
2023/03/22 01:14:42;;;;;;;0.60;0.60;;;10.10;99.90;;;;;;5054401;28;20524;-76
2023/03/22 01:17:08;;;;;;;0.60;0.60;;;10.00;99.90;;;;;;5074291;28;20040;-77
2023/03/22 01:19:36;;;;;;;0.60;0.60;;;10.10;99.90;;;;;;5075580;28;20670;-77
2023/03/22 01:22:03;;;;;;;0.60;0.60;;;10.10;99.90;;;;;;5074248;28;20055;-76
2023/03/22 01:24:29;;;;;;;0.60;0.60;;;10.10;99.90;;;;;;5072713;28;20090;-76
2023/03/22 01:26:55;;;;;;;0.60;0.60;;;10.10;99.90;;;;;;5053786;28;20409;-76
2023/03/22 01:29:22;;;;;;;0.60;0.60;;;10.10;99.90;;;;;;5050877;28;20219;-76
2023/03/22 01:31:47;;;;;;;0.60;0.60;;;10.10;99.90;;;;;;5072978;28;20040;-76
2023/03/22 01:34:13;;;;;;;0.60;0.60;;;10.10;99.90;;;;;;5060634;28;20087;-77
2023/03/22 01:36:39;;;;;;;0.60;0.60;;;10.00;99.90;;;;;;5075704;28;20573;-76
2023/03/22 01:39:05;;;;;;;0.60;0.60;;;10.00;99.90;;;;;;5069251;28;20036;-78
2023/03/22 01:41:34;;;;;;;0.60;0.60;;;10.00;99.90;;;;;;5075504;28;20059;-76
2023/03/22 01:44:11;;;;;;;0.60;0.60;;;10.00;99.90;;;;;;5041983;28;20109;-77
2023/03/22 01:46:40;;;;;;;0.60;0.60;;;10.10;99.90;;;;;;5076320;28;20040;-77
2023/03/22 01:49:29;;;;;;;0.60;0.60;;;10.10;99.90;;;;;;5071694;28;20035;-76
2023/03/22 01:52:00;;;;;;;0.60;0.60;;;10.10;99.90;;;;;;5071609;28;20051;-76
2023/03/22 01:54:35;;;;;;;0.60;0.60;;;10.10;99.90;;;;;;5051352;28;20086;-76
2023/03/22 01:57:01;;;;;;;0.60;0.60;;;10.00;99.90;;;;;;5074073;28;20149;-77
2023/03/22 01:59:28;;;;;;;0.60;0.60;;;10.00;99.90;;;;;;5071932;28;20040;-77
2023/03/22 02:01:54;;;;;;;0.50;0.50;;;10.00;99.90;;;;;;5070566;28;20157;-76
2023/03/22 02:04:22;;;;;;;0.60;0.60;;;10.00;99.90;;;;;;5055333;28;20055;-76
2023/03/22 02:06:53;;;;;;;0.52;0.52;;;10.00;99.90;;;;;;5071312;28;20209;-76
2023/03/22 02:09:20;;;;;;;0.60;0.60;;;10.00;99.90;;;;;;5076049;28;20797;-77
2023/03/22 02:12:13;;;;;;;0.60;0.60;;;10.00;99.90;;;;;;5068155;28;20052;-77
2023/03/22 02:14:46;;;;;;;0.60;0.60;;;10.00;99.90;;;;;;5076101;28;20135;-76
2023/03/22 02:17:50;;;;;;;0.60;0.60;;;10.00;99.90;;;;;;5074395;28;20105;-76
2023/03/22 02:20:27;;;;;;;0.60;0.60;;;10.00;99.90;;;;;;5074682;28;20032;-76
2023/03/22 02:23:21;;;;;;;0.60;0.60;;;10.00;99.90;;;;;;5072453;28;20516;-76
2023/03/22 02:26:24;;;;;;;0.60;0.60;;;10.00;99.90;;;;;;5056710;28;20047;-76
2023/03/22 02:29:12;;;;;;;0.60;0.60;;;10.00;99.90;;;;;;5073895;28;20504;-76
2023/03/22 02:31:56;;;;;;;0.60;0.60;;;10.00;99.90;;;;;;5055728;28;20052;-77
2023/03/22 02:34:36;;;;;;;0.60;0.60;;;10.00;99.90;;;;;;5074799;28;20048;-76
2023/03/22 02:37:24;;;;;;;0.60;0.60;;;10.00;99.90;;;;;;5057360;28;20050;-77
2023/03/22 02:39:54;;;;;;;0.60;0.60;;;9.90;99.90;;;;;;5053114;28;20102;-76
2023/03/22 02:42:49;;;;;;;0.60;0.60;;;9.90;99.90;;;;;;5052448;28;20154;-77
2023/03/22 02:45:26;;;;;;;0.70;0.70;;;9.90;99.90;;;;;;5077224;28;20105;-77
2023/03/22 02:48:02;;;;;;;0.50;0.50;;;9.90;99.90;;;;;;5054524;28;20131;-76
2023/03/22 02:50:45;;;;;;;0.60;0.60;;;9.90;99.90;;;;;;5055556;28;20131;-76
2023/03/22 02:53:26;;;;;;;0.60;0.60;;;9.90;99.90;;;;;;5068185;28;20071;-77
2023/03/22 02:56:03;;;;;;;0.60;0.60;;;9.90;99.90;;;;;;5071762;28;20052;-77
2023/03/22 02:58:38;;;;;;;0.60;0.60;;;9.90;99.90;;;;;;5058692;28;21552;-76
2023/03/22 03:01:11;;;;;;;0.60;0.60;;;9.90;99.90;;;;;;5058093;28;20058;-76
2023/03/22 03:03:38;;;;;;;0.60;0.60;;;9.90;99.90;;;;;;5055011;28;20163;-77
2023/03/22 03:06:15;;;;;;;0.60;0.60;;;9.90;99.90;;;;;;5055779;28;20132;-77
2023/03/22 03:08:43;;;;;;;0.50;0.50;;;9.90;99.90;;;;;;5056837;28;20040;-76
2023/03/22 03:11:09;;;;;;;0.55;0.55;;;9.80;99.90;;;;;;5054703;28;20101;-77
2023/03/22 03:13:34;;;;;;;0.60;0.60;;;9.80;99.90;;;;;;5058438;28;20052;-77
2023/03/22 03:16:02;;;;;;;0.60;0.60;;;9.80;99.90;;;;;;5061699;28;20530;-77
2023/03/22 03:18:40;;;;;;;0.60;0.60;;;9.90;99.90;;;;;;5041829;28;20052;-77
2023/03/22 03:22:03;;;;;;;0.60;0.60;;;9.90;99.90;;;;;;5041610;28;20048;-77
2023/03/22 03:24:44;;;;;;;0.50;0.50;;;9.90;99.90;;;;;;5018507;28;20037;-76
2023/03/22 03:27:48;;;;;;;0.60;0.60;;;9.90;99.90;;;;;;5016706;28;20049;-76
2023/03/22 03:30:30;;;;;;;0.60;0.60;;;9.80;99.90;;;;;;5045144;28;20056;-77
2023/03/22 03:33:05;;;;;;;0.60;0.60;;;9.90;99.90;;;;;;5059719;28;20047;-77
2023/03/22 03:35:42;;;;;;;0.60;0.60;;;9.90;99.90;;;;;;5042898;28;20080;-76
2023/03/22 03:38:17;;;;;;;0.60;0.60;;;9.80;99.90;;;;;;5058882;28;20043;-77
2023/03/22 03:41:07;;;;;;;0.50;0.50;;;9.90;99.90;;;;;;5040904;28;20759;-78
2023/03/22 03:43:34;;;;;;;0.60;0.60;;;10.00;99.90;;;;;;5055706;28;20047;-77
2023/03/22 03:46:00;;;;;;;0.50;0.50;;;10.00;99.90;;;;;;5044600;28;20046;-76
2023/03/22 03:48:31;;;;;;;0.60;0.60;;;10.00;99.90;;;;;;5058123;28;20044;-77
2023/03/22 03:50:59;;;;;;;0.60;0.60;;;10.00;99.90;;;;;;5023343;28;20048;-76
2023/03/22 03:53:24;;;;;;;0.50;0.50;;;10.00;99.90;;;;;;5058851;28;20489;-76
2023/03/22 03:55:50;;;;;;;0.60;0.60;;;10.00;99.90;;;;;;5042488;28;20048;-76
2023/03/22 03:58:16;;;;;;;0.52;0.52;;;10.00;99.90;;;;;;5066685;28;20430;-76
2023/03/22 04:00:42;;;;;;;0.50;0.50;;;10.10;99.90;;;;;;5042669;28;20028;-77
2023/03/22 04:03:08;;;;;;;0.60;0.60;;;10.10;99.90;;;;;;5048332;28;20722;-78
2023/03/22 04:05:34;;;;;;;0.60;0.60;;;10.20;99.90;;;;;;5031773;28;20048;-77
2023/03/22 04:08:00;;;;;;;0.60;0.60;;;10.10;99.90;;;;;;5046680;28;20093;-77
2023/03/22 04:10:25;;;;;;;0.60;0.60;;;10.20;99.90;;;;;;5046721;28;20119;-77
2023/03/22 04:12:51;;;;;;;0.60;0.60;;;10.10;99.90;;;;;;5058885;28;20420;-77
2023/03/22 04:15:17;;;;;;;0.60;0.60;;;10.30;99.90;;;;;;5060434;28;20071;-77
2023/03/22 04:17:42;;;;;;;0.60;0.60;;;10.30;99.90;;;;;;5064513;28;20044;-77
2023/03/22 04:20:09;;;;;;;0.60;0.60;;;10.30;99.90;;;;;;5062030;28;20075;-77
2023/03/22 04:22:37;;;;;;;0.60;0.60;;;10.30;99.90;;;;;;5062137;28;20052;-76
2023/03/22 04:25:12;;;;;;;0.52;0.52;;;10.40;99.90;;;;;;5046738;28;20589;-77
2023/03/22 04:27:40;;;;;;;0.60;0.60;;;10.30;99.90;;;;;;5061911;28;20040;-77
2023/03/22 04:30:09;;;;;;;0.50;0.50;;;10.40;99.90;;;;;;5060780;28;20119;-76
2023/03/22 04:32:36;;;;;;;0.60;0.60;;;10.40;99.90;;;;;;5062428;28;20072;-77
2023/03/22 04:35:03;;;;;;;0.60;0.60;;;10.40;99.90;;;;;;5064669;28;20148;-77
2023/03/22 04:37:30;;;;;;;0.60;0.60;;;10.40;99.90;;;;;;5044176;28;20545;-77
2023/03/22 04:39:56;;;;;;;0.60;0.60;;;10.40;99.90;;;;;;5059171;28;20701;-77
2023/03/22 04:42:22;;;;;;;0.60;0.60;;;10.40;99.90;;;;;;5059416;28;20506;-77
2023/03/22 04:44:48;;;;;;;0.60;0.60;;;10.40;99.90;;;;;;5063532;28;20123;-77
2023/03/22 04:47:14;;;;;;;0.70;0.70;;;10.30;99.90;;;;;;5059964;28;20053;-77
2023/03/22 04:49:40;;;;;;;0.60;0.60;;;10.30;99.90;;;;;;5060054;28;20044;-77
2023/03/22 04:52:06;;;;;;;0.60;0.60;;;10.30;99.90;;;;;;5063583;28;20542;-76
2023/03/22 04:54:32;;;;;;;0.60;0.60;;;10.30;99.90;;;;;;5046310;28;20048;-77
2023/03/22 04:56:58;;;;;;;0.60;0.60;;;10.30;99.90;;;;;;5058121;28;20498;-77
2023/03/22 04:59:23;;;;;;;0.60;0.60;;;10.30;99.90;;;;;;5059358;28;20048;-77
2023/03/22 05:01:50;;;;;;;0.60;0.60;;;10.30;99.90;;;;;;5056776;28;20497;-77
2023/03/22 05:04:16;;;;;;;0.60;0.60;;;10.30;99.90;;;;;;5061560;28;20040;-77
2023/03/22 05:06:43;;;;;;;0.60;0.60;;;10.30;99.90;;;;;;5042950;28;20080;-77
2023/03/22 05:09:09;;;;;;;0.60;0.60;;;10.30;99.90;;;;;;5058747;28;20068;-77
2023/03/22 05:11:35;;;;;;;0.60;0.60;;;10.30;99.90;;;;;;5042976;28;20052;-78
2023/03/22 05:14:01;;;;;;;0.60;0.60;;;10.30;99.90;;;;;;5041944;28;20504;-77
2023/03/22 05:16:28;;;;;;;0.60;0.60;;;10.30;99.90;;;;;;5042788;28;20051;-77
2023/03/22 05:18:53;;;;;;;0.60;0.60;;;10.20;99.90;;;;;;5058167;28;20037;-77
2023/03/22 05:21:26;;;;;;;0.50;0.50;;;10.30;99.90;;;;;;5042402;28;20516;-77
2023/03/22 05:23:57;;;;;;;0.60;0.60;;;10.30;99.90;;;;;;5034357;28;20313;-77
2023/03/22 05:26:26;;;;;;;0.60;0.60;;;10.40;99.90;;;;;;5062077;28;20286;-77
2023/03/22 05:28:55;;;;;;;0.60;0.60;;;10.40;99.90;;;;;;5060072;28;21010;-77
2023/03/22 05:31:21;;;;;;;0.60;0.60;;;10.50;99.90;;;;;;5061608;28;20054;-77
2023/03/22 05:33:51;;;;;;;0.50;0.50;;;10.40;99.90;;;;;;5051706;28;20040;-77
2023/03/22 05:36:18;;;;;;;0.60;0.60;;;10.40;99.90;;;;;;5076529;28;20033;-76
2023/03/22 05:38:45;;;;;;;0.50;0.50;;;10.40;99.90;;;;;;5075775;28;20662;-76
2023/03/22 05:41:12;;;;;;;0.50;0.50;;;10.40;99.90;;;;;;5065722;28;20497;-77
2023/03/22 05:43:38;;;;;;;0.60;0.60;;;10.40;99.90;;;;;;5071565;28;20501;-77
2023/03/22 05:46:08;;;;;;;0.55;0.55;;;10.40;99.90;;;;;;5055902;28;20047;-76
2023/03/22 05:48:35;;;;;;;0.60;0.60;;;10.40;99.90;;;;;;5073964;28;20708;-77
2023/03/22 05:51:02;;;;;;;0.60;0.60;;;10.40;99.90;;;;;;5051996;28;20101;-77
2023/03/22 05:53:28;;;;;;;0.60;0.60;;;10.40;99.90;;;;;;5070405;28;20403;-78
2023/03/22 05:55:59;;;;;;;0.60;0.60;;;10.40;99.90;;;;;;5045945;28;20192;-77
2023/03/22 05:58:29;;;;;;;0.60;0.60;;;10.40;99.90;;;;;;5075222;28;20461;-76
2023/03/22 06:01:04;;;;;;;0.50;0.50;;;10.50;99.90;;;;;;5071700;28;20055;-76
2023/03/22 06:03:30;;;;;;;0.60;0.60;;;10.50;99.90;;;;;;5056794;28;20453;-76
2023/03/22 06:05:56;;;;;;;0.60;0.60;;;10.50;99.90;;;;;;5063834;28;20089;-76
2023/03/22 06:08:22;;;;;;;0.60;0.60;;;10.50;99.90;;;;;;5063925;28;20036;-77
2023/03/22 06:10:52;;;;;;;0.60;0.60;;;10.50;99.90;;;;;;5042733;28;20485;-77
2023/03/22 06:13:19;;;;;;;0.75;0.60;;;10.50;99.90;;;;;;5063365;28;20044;-77
2023/03/22 06:15:45;;;;;;;0.60;0.60;;;10.50;99.90;;;;;;5056877;28;20051;-77
2023/03/22 06:18:11;;;;;;;0.50;0.50;;;10.50;99.90;;;;;;5076401;28;20044;-77
2023/03/22 06:20:38;;;;;;;0.60;0.60;;;10.50;99.90;;;;;;5073782;28;20537;-77
2023/03/22 06:23:04;;;;;;;0.50;0.50;;;10.50;99.90;;;;;;5050168;28;20066;-77
2023/03/22 06:25:30;;;;;;;0.60;0.60;;;10.50;99.90;;;;;;5073095;28;20092;-76
2023/03/22 06:27:56;;;;;;;0.50;0.50;;;10.50;99.90;;;;;;5056893;28;20802;-77
2023/03/22 06:30:22;;;;;;;0.60;0.60;;;10.50;99.90;;;;;;5069901;28;20044;-75
2023/03/22 06:32:47;;;;;;;0.60;0.60;;;10.40;99.90;;;;;;5068994;28;20540;-77
2023/03/22 06:35:14;;;;;;;0.60;0.60;;;10.40;99.90;;;;;;5069267;28;20069;-77
2023/03/22 06:37:40;;;;;;;0.50;0.50;;;10.40;99.90;;;;;;5058819;28;20202;-76
2023/03/22 06:40:07;;;;;;;0.60;0.60;;;10.40;99.90;;;;;;5038088;28;20052;-77
2023/03/22 06:42:33;;;;;;;0.50;0.50;;;10.40;99.90;;;;;;5040859;28;20059;-76
2023/03/22 06:44:59;;;;;;;0.60;0.60;;;10.40;99.90;;;;;;5057951;28;20040;-78
2023/03/22 06:47:26;;;;;;;0.60;0.60;;;10.40;99.90;;;;;;5060132;28;20250;-77
2023/03/22 06:49:52;;;;;;;0.60;0.60;;;10.50;99.90;;;;;;5055221;28;20049;-77
2023/03/22 06:52:18;;;;;;;0.60;0.60;;;10.50;99.90;;;;;;5061336;28;20071;-76
2023/03/22 06:54:44;;;;;;;0.60;0.60;;;10.60;99.90;;;;;;5037844;28;20048;-76
2023/03/22 06:57:10;;;;;;;0.50;0.50;;;10.70;99.90;;;;;;5043262;28;20078;-76
2023/03/22 06:59:36;;;;;;;0.60;0.60;;;10.70;99.90;;;;;;5057772;28;20121;-76
2023/03/22 07:02:02;;;;;;;0.50;0.50;;;10.80;99.90;;;;;;5059599;28;20733;-76
2023/03/22 07:04:27;;;;;;;0.60;0.60;;;10.90;99.90;;;;;;5059159;28;20039;-77
2023/03/22 07:06:53;;;;;;;0.60;0.60;;;11.10;99.90;;;;;;5063330;28;20039;-75
2023/03/22 07:09:19;;;;;;;0.50;0.50;;;11.20;99.90;;;;;;5061319;28;20036;-76
2023/03/22 07:11:48;;;;;;;0.50;0.50;;;11.30;99.90;;;;;;5058672;28;20048;-77
2023/03/22 07:14:14;;;;;;;0.60;0.60;;;11.30;99.90;;;;;;5043459;28;20052;-77
2023/03/22 07:16:40;;;;;;;0.50;0.50;;;11.50;99.90;;;;;;5074082;28;20051;-76
2023/03/22 07:19:05;;;;;;;0.50;0.50;;;11.50;99.90;;;;;;5075902;28;20040;-77
2023/03/22 07:21:31;;;;;;;0.50;0.50;;;11.70;99.90;;;;;;5074331;28;20540;-77
2023/03/22 07:23:57;;;;;;;0.50;0.50;;;11.80;99.90;;;;;;5074331;28;20401;-76
2023/03/22 07:26:24;;;;;;;0.50;0.50;;;11.80;99.90;;;;;;5076186;28;20070;-77
2023/03/22 07:28:50;;;;;;;0.50;0.50;;;11.80;99.90;;;;;;5055786;28;20060;-78
2023/03/22 07:31:16;;;;;;;0.50;0.50;;;11.80;99.90;;;;;;5056638;28;20662;-77
2023/03/22 07:33:42;;;;;;;0.50;0.50;;;11.70;99.90;;;;;;5072586;28;20040;-77
2023/03/22 07:36:14;;;;;;;0.50;0.50;;;11.60;99.90;;;;;;5058042;28;20051;-77
2023/03/22 07:38:40;;;;;;;0.50;0.50;;;11.60;99.90;;;;;;5056200;28;20044;-78
2023/03/22 07:41:05;;;;;;;0.50;0.50;;;11.60;99.90;;;;;;5074040;28;20103;-78
2023/03/22 07:43:31;;;;;;;0.50;0.50;;;11.60;99.90;;;;;;5072607;28;20406;-77
2023/03/22 07:45:57;;;;;;;0.50;0.50;;;11.80;99.90;;;;;;5054205;28;20048;-78
2023/03/22 07:48:23;;;;;;;0.50;0.50;;;11.80;99.90;;;;;;5073693;28;20047;-78
2023/03/22 07:50:49;;;;;;;0.50;0.50;;;11.90;99.90;;;;;;5053782;28;20040;-77
2023/03/22 07:53:14;;;;;;;0.50;0.50;;;11.90;99.90;;;;;;5054449;28;20246;-76
2023/03/22 07:55:43;;;;;;;0.50;0.50;;;11.90;99.90;;;;;;5074786;28;20081;-77
2023/03/22 07:58:08;;;;;;;0.50;0.50;;;12.10;99.90;;;;;;5071959;28;20044;-79
2023/03/22 08:00:34;;;;;;;0.60;0.60;;;12.10;99.90;;;;;;5073177;28;20044;-77
2023/03/22 08:03:00;;;;;;;0.60;0.60;;;12.30;99.90;;;;;;5052961;28;20079;-78
2023/03/22 08:05:26;;;;;;;0.50;0.50;;;12.20;99.90;;;;;;5073696;28;20532;-78
2023/03/22 08:07:53;;;;;;;0.50;0.50;;;12.40;99.90;;;;;;5054289;28;20150;-77
2023/03/22 08:10:19;;;;;;;0.50;0.50;;;12.40;99.90;;;;;;5075107;28;20123;-76
2023/03/22 08:12:45;;;;;;;0.50;0.50;;;12.10;99.90;;;;;;5074359;28;20048;-77
2023/03/22 08:15:11;;;;;;;0.50;0.50;;;12.00;99.90;;;;;;5074529;28;20048;-78
2023/03/22 08:17:37;;;;;;;0.60;0.60;;;11.90;99.90;;;;;;5055332;28;20036;-76
2023/03/22 08:20:07;;;;;;;0.50;0.50;;;12.00;99.90;;;;;;5057012;28;20129;-77
2023/03/22 08:22:34;;;;;;;0.50;0.50;;;12.00;99.90;;;;;;5071126;28;20048;-77
2023/03/22 08:25:00;;;;;;;0.50;0.50;;;12.00;99.90;;;;;;5057205;28;20059;-78
2023/03/22 08:27:26;;;;;;;0.50;0.50;;;11.90;99.90;;;;;;5074685;28;20040;-79
2023/03/22 08:29:52;;;;;;;0.60;0.60;;;11.90;99.90;;;;;;5054770;28;20105;-77
2023/03/22 08:32:17;;;;;;;0.50;0.50;;;12.20;99.90;;;;;;5058202;28;20064;-78
2023/03/22 08:34:43;;;;;;;0.50;0.50;;;12.30;99.90;;;;;;5057069;28;20089;-77
2023/03/22 08:37:10;;;;;;;0.50;0.50;;;12.20;99.90;;;;;;5055080;28;20135;-78
2023/03/22 08:39:36;;;;;;;0.60;0.60;;;12.10;99.90;;;;;;5073911;28;20508;-77
2023/03/22 08:42:03;;;;;;;0.50;0.50;;;12.20;99.90;;;;;;5073482;28;20047;-77
2023/03/22 08:44:29;;;;;;;0.50;0.50;;;12.20;99.90;;;;;;5060401;28;20051;-77
2023/03/22 08:46:54;;;;;;;0.50;0.50;;;12.20;99.90;;;;;;5059839;28;20055;-77
2023/03/22 08:49:20;;;;;;;0.50;0.50;;;12.30;99.90;;;;;;5058768;28;20047;-79
2023/03/22 08:51:46;;;;;;;0.50;0.50;;;12.30;99.90;;;;;;5072104;28;20050;-79
2023/03/22 08:54:12;;;;;;;0.57;0.57;;;12.20;99.90;;;;;;5073475;28;20393;-77
2023/03/22 08:56:38;;;;;;;0.50;0.50;;;12.20;99.90;;;;;;5078114;28;20051;-78
2023/03/22 08:59:06;;;;;;;0.52;0.52;;;12.20;99.90;;;;;;5060656;28;20054;-77
2023/03/22 09:01:32;;;;;;;0.50;0.50;;;12.30;99.90;;;;;;5076216;28;20112;-77
2023/03/22 09:03:58;;;;;;;0.50;0.50;;;12.30;99.90;;;;;;5070515;28;20055;-77
2023/03/22 09:06:25;;;;;;;0.60;0.60;;;12.10;99.90;;;;;;5054540;28;20043;-77
2023/03/22 09:08:51;;;;;;;0.50;0.50;;;12.10;99.90;;;;;;5071106;28;20121;-77
2023/03/22 09:11:18;;;;;;;0.50;0.50;;;12.00;99.90;;;;;;5070901;28;20518;-77
2023/03/22 09:13:44;;;;;;;0.50;0.50;;;12.20;99.90;;;;;;5058222;28;20050;-78
2023/03/22 09:16:10;;;;;;;0.50;0.50;;;12.50;99.90;;;;;;5076705;28;20043;-77
2023/03/22 09:18:37;;;;;;;0.50;0.50;;;12.70;99.90;;;;;;5077270;28;20051;-78
2023/03/22 09:21:04;;;;;;;0.50;0.50;;;13.10;99.90;;;;;;5075609;28;20067;-77
2023/03/22 09:23:31;;;;;;;0.50;0.50;;;13.40;99.90;;;;;;5057783;28;20474;-78
2023/03/22 09:26:00;;;;;;;0.50;0.50;;;13.50;99.90;;;;;;5076786;28;20079;-77
2023/03/22 09:28:27;;;;;;;0.50;0.50;;;13.40;99.90;;;;;;5077255;28;20048;-78
2023/03/22 09:30:52;;;;;;;0.50;0.50;;;13.70;99.90;;;;;;5056058;28;20055;-77
2023/03/22 09:33:18;;;;;;;0.50;0.50;;;13.20;99.90;;;;;;5057591;28;20048;-77
2023/03/22 09:35:44;;;;;;;0.50;0.50;;;13.00;99.90;;;;;;5077557;28;20116;-77
2023/03/22 09:38:11;;;;;;;0.50;0.50;;;12.90;99.90;;;;;;5074906;28;20127;-77
2023/03/22 09:40:45;;;;;;;0.50;0.50;;;12.80;99.90;;;;;;5058784;28;20123;-77
2023/03/22 09:43:14;;;;;;;0.50;0.50;;;13.00;99.90;;;;;;5077918;28;20047;-76
2023/03/22 09:45:47;;;;;;;0.50;0.50;;;13.00;99.90;;;;;;5077854;28;20066;-78
2023/03/22 09:48:20;;;;;;;0.60;0.60;;;12.90;99.90;;;;;;5075494;28;20040;-77
2023/03/22 09:50:49;;;;;;;0.50;0.50;;;12.90;99.90;;;;;;5057155;28;20040;-78
2023/03/22 09:53:16;;;;;;;0.50;0.50;;;13.00;99.90;;;;;;5056927;28;20521;-77
2023/03/22 09:56:05;;;;;;;0.50;0.50;;;13.00;99.90;;;;;;5076967;28;20063;-77
2023/03/22 09:58:51;;;;;;;0.50;0.50;;;12.90;99.90;;;;;;5049886;28;20051;-77
2023/03/22 10:01:50;;;;;;;0.60;0.60;;;12.80;99.90;;;;;;5057726;28;20044;-78
2023/03/22 10:04:44;;;;;;;0.50;0.50;;;12.70;99.90;;;;;;5058032;28;20058;-77
2023/03/22 10:07:20;;;;;;;0.60;0.60;;;12.60;99.90;;;;;;5074870;28;20121;-77
2023/03/22 10:10:11;;;;;;;0.60;0.60;;;12.70;99.90;;;;;;5072648;28;20565;-76
2023/03/22 10:13:05;;;;;;;0.60;0.60;;;12.60;99.90;;;;;;5056633;28;20072;-78
2023/03/22 10:16:09;;;;;;;0.60;0.60;;;12.50;99.90;;;;;;5048363;28;20084;-77
2023/03/22 10:18:43;;;;;;;10.35;7.85;;;12.50;99.90;;;;;;5073080;28;20056;-77
2023/03/22 10:21:16;;;;;;;0.50;0.50;;;12.40;99.90;;;;;;5056291;28;20052;-78
2023/03/22 10:24:02;;;;;;;0.60;0.60;;;12.30;99.90;;;;;;5075882;28;20051;-77
2023/03/22 10:26:33;;;;;;;0.50;0.50;;;12.20;99.90;;;;;;5076398;28;20044;-78
2023/03/22 10:29:03;;;;;;;0.50;0.50;;;12.10;99.90;;;;;;5074004;28;20113;-78
2023/03/22 10:31:30;;;;;;;0.50;0.50;;;12.10;99.90;;;;;;5057918;28;20113;-78
2023/03/22 10:34:10;;;;;;;0.50;0.50;;;12.00;99.90;;;;;;5075927;28;20086;-78
2023/03/22 10:36:39;;;;;;;0.60;0.60;;;11.90;99.90;;;;;;5077638;28;20044;-77
2023/03/22 10:39:32;;;;;;;0.50;0.50;;;11.90;99.90;;;;;;5075690;28;20520;-76
2023/03/22 10:42:15;;;;;;;0.60;0.60;;;11.80;99.90;;;;;;5066630;28;20939;-77
2023/03/22 10:44:47;;;;;;;0.50;0.50;;;11.80;99.90;;;;;;5057323;28;20106;-78
2023/03/22 10:47:20;;;;;;;0.50;0.50;;;11.80;99.90;;;;;;5074269;28;20131;-77
2023/03/22 10:49:53;;;;;;;0.50;0.50;;;11.80;99.90;;;;;;5074887;28;21323;-80
2023/03/22 10:52:41;;;;;;;0.50;0.50;;;11.70;99.90;;;;;;5072499;28;20036;-76
2023/03/22 10:55:13;;;;;;;0.50;0.50;;;11.70;99.90;;;;;;5075490;28;20047;-78
2023/03/22 10:57:41;;;;;;;0.50;0.50;;;11.60;99.90;;;;;;5073673;28;20108;-78
2023/03/22 11:00:10;;;;;;;0.50;0.50;;;11.60;99.90;;;;;;5074948;28;20043;-77
2023/03/22 11:02:49;;;;;;;0.50;0.50;;;11.50;99.90;;;;;;5076364;28;20080;-78
2023/03/22 11:05:22;;;;;;;0.50;0.50;;;11.50;99.90;;;;;;5078470;28;20417;-77
2023/03/22 11:07:47;;;;;;;0.50;0.50;;;11.50;99.90;;;;;;5074150;28;20040;-80
2023/03/22 11:10:39;;;;;;;0.50;0.50;;;11.40;99.90;;;;;;5075425;28;20044;-78
2023/03/22 11:13:08;;;;;;;0.50;0.50;;;11.50;99.90;;;;;;5069228;28;20413;-78
2023/03/22 11:15:37;;;;;;;0.50;0.50;;;11.50;99.90;;;;;;5077269;28;20055;-78
2023/03/22 11:18:14;;;;;;;0.50;0.50;;;11.50;99.90;;;;;;5074177;28;20097;-78
2023/03/22 11:20:51;;;;;;;0.50;0.50;;;11.60;99.90;;;;;;5073060;28;20044;-78
2023/03/22 11:23:20;;;;;;;0.50;0.50;;;11.60;99.90;;;;;;5058970;28;20094;-78
2023/03/22 11:25:48;;;;;;;0.50;0.50;;;11.60;99.90;;;;;;5057417;28;20058;-78
2023/03/22 11:28:17;;;;;;;0.50;0.50;;;11.60;99.90;;;;;;5053745;28;20048;-77
2023/03/22 11:30:58;;;;;;;0.50;0.50;;;11.60;99.90;;;;;;5075061;28;20595;-77
2023/03/22 11:33:27;;;;;;;0.50;0.50;;;11.60;99.90;;;;;;5073945;28;20717;-77
2023/03/22 11:35:55;;;;;;;0.50;0.50;;;11.60;99.90;;;;;;5074954;28;20074;-77
2023/03/22 11:38:29;;;;;;;0.50;0.50;;;11.50;99.90;;;;;;5074375;28;20145;-79
2023/03/22 11:40:59;;;;;;;0.50;0.50;;;11.60;99.90;;;;;;5052661;28;20064;-78
2023/03/22 11:43:55;;;;;;;0.50;0.50;;;11.60;99.90;;;;;;5056938;28;20048;-77
2023/03/22 11:46:22;;;;;;;0.50;0.50;;;11.60;99.90;;;;;;5070515;28;20079;-77
2023/03/22 11:48:51;;;;;;;0.50;0.50;;;11.60;99.90;;;;;;5055616;28;20568;-77
2023/03/22 11:51:25;;;;;;;0.50;0.50;;;11.60;99.90;;;;;;5055610;28;20052;-77
2023/03/22 11:53:57;;;;;;;0.50;0.50;;;11.60;99.90;;;;;;5074202;28;20044;-77
2023/03/22 11:56:28;;;;;;;0.50;0.50;;;11.70;99.90;;;;;;5073694;28;20052;-80
2023/03/22 11:59:05;;;;;;;0.50;0.50;;;11.70;99.90;;;;;;5074603;28;20123;-78
2023/03/22 12:01:50;;;;;;;0.50;0.50;;;11.60;99.90;;;;;;5073840;28;20032;-78
2023/03/22 12:04:25;;;;;;;0.50;0.50;;;11.80;99.90;;;;;;5072318;28;20109;-78
2023/03/22 12:07:02;;;;;;;0.50;0.50;;;11.80;99.90;;;;;;5050450;28;20083;-77
2023/03/22 12:09:55;;;;;;;0.50;0.50;;;11.80;99.90;;;;;;5054017;28;20043;-77
2023/03/22 12:12:31;;;;;;;0.50;0.50;;;11.80;99.90;;;;;;5072564;28;20575;-78
2023/03/22 12:15:03;;;;;;;0.50;0.50;;;11.90;99.90;;;;;;5076843;28;20058;-77
2023/03/22 12:17:36;;;;;;;0.50;0.50;;;11.80;99.90;;;;;;5059331;28;20052;-78
2023/03/22 12:20:25;;;;;;;0.50;0.50;;;11.80;99.90;;;;;;5060307;28;20073;-78
2023/03/22 12:22:53;;;;;;;0.50;0.50;;;11.80;99.90;;;;;;5077933;28;20044;-78
2023/03/22 12:25:24;;;;;;;0.50;0.50;;;11.90;99.90;;;;;;5058849;28;20591;-78
2023/03/22 12:27:54;;;;;;;0.50;0.50;;;11.90;99.90;;;;;;5059701;28;20040;-80
2023/03/22 12:30:24;;;;;;;0.50;0.50;;;11.90;99.90;;;;;;5077710;28;20105;-77
2023/03/22 12:32:57;;;;;;;0.50;0.50;;;11.80;99.90;;;;;;5059504;28;20043;-77
2023/03/22 12:35:28;;;;;;;0.50;0.50;;;11.80;99.90;;;;;;5060322;28;20048;-77
2023/03/22 12:37:59;;;;;;;0.50;0.50;;;11.80;99.90;;;;;;5058931;28;20048;-78
2023/03/22 12:40:33;;;;;;;0.50;0.50;;;11.70;99.90;;;;;;5077353;28;20386;-77
2023/03/22 12:43:02;;;;;;;0.50;0.50;;;11.70;99.90;;;;;;5069474;28;20040;-78
2023/03/22 12:45:32;;;;;;;0.60;0.60;;;11.70;99.90;;;;;;5078719;28;20044;-77
2023/03/22 12:48:25;;;;;;;0.50;0.50;;;11.60;99.90;;;;;;5074620;28;20084;-78
2023/03/22 12:50:58;;;;;;;0.50;0.50;;;11.70;99.90;;;;;;5056093;28;20047;-78
2023/03/22 12:53:29;;;;;;;0.50;0.50;;;11.60;99.90;;;;;;5075121;28;20040;-77
2023/03/22 12:55:55;;;;;;;0.60;0.60;;;11.60;99.90;;;;;;5058263;28;20048;-77
2023/03/22 12:58:24;;;;;;;0.60;0.60;;;11.60;99.90;;;;;;5076608;28;20044;-77
2023/03/22 13:00:52;;;;;;;0.50;0.50;;;11.60;99.90;;;;;;5055695;28;20549;-77
2023/03/22 13:03:28;;;;;;;0.60;0.60;;;11.60;99.90;;;;;;5075218;28;20605;-78
2023/03/22 13:06:04;;;;;;;0.50;0.50;;;11.60;99.90;;;;;;5059913;28;20056;-78